createdAt,value
2022-11-21T00:00:29.907Z,11.35
2022-11-21T00:03:32.646Z,11.75
2022-11-21T00:06:35.146Z,11.70
2022-11-21T00:09:37.935Z,11.95
2022-11-21T00:12:40.642Z,12.17
2022-11-21T00:15:44.007Z,11.10
2022-11-21T00:18:46.523Z,11.45
2022-11-21T00:21:49.370Z,12.18
2022-11-21T00:24:54.273Z,11.85
2022-11-21T00:27:57.617Z,12.63
2022-11-21T00:31:00.182Z,12.23
2022-11-21T00:34:03.023Z,11.68
2022-11-21T00:37:05.567Z,11.60
2022-11-21T00:40:09.039Z,12.40
2022-11-21T00:43:11.726Z,10.90
2022-11-21T00:46:14.600Z,11.80
2022-11-21T00:49:17.154Z,11.80
2022-11-21T00:52:19.952Z,11.20
2022-11-21T00:55:23.336Z,11.82
2022-11-21T00:58:27.187Z,10.93
2022-11-21T01:01:29.809Z,12.20
2022-11-21T01:04:34.240Z,11.60
2022-11-21T01:07:36.807Z,11.02
2022-11-21T01:10:39.801Z,12.23
2022-11-21T01:13:42.721Z,10.23
2022-11-21T01:16:45.798Z,11.80
2022-11-21T01:19:48.313Z,11.75
2022-11-21T01:22:51.218Z,11.48
2022-11-21T01:25:53.888Z,11.95
2022-11-21T01:29:00.265Z,10.97
2022-11-21T01:32:02.706Z,11.25
2022-11-21T01:35:05.920Z,11.00
2022-11-21T01:38:08.579Z,11.98
2022-11-21T01:41:12.994Z,10.80
2022-11-21T01:44:21.109Z,10.57
2022-11-21T01:47:23.940Z,12.15
2022-11-21T01:50:26.761Z,11.80
2022-11-21T01:53:29.717Z,11.12
2022-11-21T01:56:38.087Z,11.15
2022-11-21T02:00:00.672Z,11.97
2022-11-21T02:03:09.423Z,12.02
2022-11-21T02:06:12.629Z,13.45
2022-11-21T02:09:15.220Z,12.60
2022-11-21T02:12:29.535Z,12.95
2022-11-21T02:15:32.326Z,12.23
2022-11-21T02:18:35.371Z,11.50
2022-11-21T02:21:58.714Z,10.68
2022-11-21T02:25:04.724Z,10.23
2022-11-21T02:28:09.808Z,11.77
2022-11-21T02:31:12.649Z,11.57
2022-11-21T02:34:15.242Z,12.45
2022-11-21T02:37:18.420Z,11.52
2022-11-21T02:40:28.215Z,13.05
2022-11-21T02:43:37.752Z,10.95
2022-11-21T02:46:50.230Z,11.63
2022-11-21T02:50:00.415Z,10.77
2022-11-21T02:53:04.402Z,13.35
2022-11-21T02:56:07.087Z,10.80
2022-11-21T02:59:10.525Z,12.65
2022-11-21T03:02:13.329Z,11.20
2022-11-21T03:05:18.207Z,10.90
2022-11-21T03:08:21.125Z,11.98
2022-11-21T03:11:23.666Z,12.37
2022-11-21T03:14:26.823Z,11.90
2022-11-21T03:17:29.702Z,10.40
2022-11-21T03:20:34.518Z,12.10
2022-11-21T03:23:37.121Z,12.65
2022-11-21T03:26:40.065Z,13.32
2022-11-21T03:29:42.682Z,12.27
2022-11-21T03:32:45.589Z,11.17
2022-11-21T03:35:48.422Z,10.23
2022-11-21T03:38:51.491Z,10.55
2022-11-21T03:41:54.041Z,10.63
2022-11-21T03:44:56.925Z,11.90
2022-11-21T03:47:59.500Z,11.00
2022-11-21T03:51:02.503Z,11.25
2022-11-21T03:54:05.799Z,11.63
2022-11-21T03:57:08.855Z,11.75
2022-11-21T04:00:12.346Z,11.00
2022-11-21T04:03:15.356Z,11.67
2022-11-21T04:06:19.657Z,11.00
2022-11-21T04:09:22.485Z,10.63
2022-11-21T04:12:24.994Z,9.55
2022-11-21T04:15:27.813Z,11.07
2022-11-21T04:18:30.549Z,12.80
2022-11-21T04:21:33.523Z,13.98
2022-11-21T04:24:36.269Z,14.68
2022-11-21T04:27:39.115Z,14.40
2022-11-21T04:30:41.830Z,13.32
2022-11-21T04:33:44.751Z,12.67
2022-11-21T04:36:47.507Z,13.07
2022-11-21T04:39:50.411Z,14.20
2022-11-21T04:42:52.946Z,14.43
2022-11-21T04:45:55.923Z,14.57
2022-11-21T04:48:58.682Z,13.30
2022-11-21T04:52:01.578Z,12.68
2022-11-21T04:55:04.777Z,12.27
2022-11-21T04:58:07.895Z,12.70
2022-11-21T05:01:10.622Z,13.77
2022-11-21T05:04:13.488Z,12.53
2022-11-21T05:07:16.541Z,13.20
2022-11-21T05:10:19.519Z,14.27
2022-11-21T05:13:22.151Z,13.10
2022-11-21T05:16:25.131Z,12.82
2022-11-21T05:19:27.959Z,14.43
2022-11-21T05:22:30.835Z,14.25
2022-11-21T05:25:33.371Z,12.63
2022-11-21T05:28:36.162Z,13.30
2022-11-21T05:31:41.405Z,13.10
2022-11-21T05:34:44.281Z,13.13
2022-11-21T05:37:46.931Z,11.30
2022-11-21T05:40:52.777Z,12.77
2022-11-21T05:43:55.473Z,12.27
2022-11-21T05:46:58.351Z,10.85
2022-11-21T05:50:00.997Z,12.07
2022-11-21T05:53:04.916Z,13.18
2022-11-21T05:56:10.511Z,13.02
2022-11-21T05:59:13.499Z,12.88
2022-11-21T06:02:34.787Z,14.52
2022-11-21T06:05:37.901Z,9.97
2022-11-21T06:08:45.535Z,12.43
2022-11-21T06:11:48.443Z,13.15
2022-11-21T06:14:51.040Z,13.93
2022-11-21T06:17:53.818Z,12.93
2022-11-21T06:21:12.674Z,11.57
2022-11-21T06:24:20.725Z,12.30
2022-11-21T06:27:24.717Z,13.05
2022-11-21T06:30:27.671Z,12.32
2022-11-21T06:33:30.261Z,12.75
2022-11-21T06:36:33.138Z,12.13
2022-11-21T06:39:35.892Z,12.18
2022-11-21T06:42:38.793Z,14.02
2022-11-21T06:45:41.398Z,11.98
2022-11-21T06:48:44.841Z,11.73
2022-11-21T06:51:47.539Z,11.43
2022-11-21T06:54:50.389Z,12.85
2022-11-21T06:57:57.315Z,13.65
2022-11-21T07:01:05.507Z,13.90
2022-11-21T07:04:08.232Z,17.40
2022-11-21T07:07:11.045Z,17.03
2022-11-21T07:10:13.957Z,15.98
2022-11-21T07:13:22.791Z,15.90
2022-11-21T07:16:26.529Z,19.35
2022-11-21T07:19:29.713Z,19.33
2022-11-21T07:22:32.979Z,18.37
2022-11-21T07:25:36.946Z,19.10
2022-11-21T07:28:40.041Z,20.42
2022-11-21T07:31:43.078Z,20.58
2022-11-21T07:34:45.627Z,20.10
2022-11-21T07:37:48.641Z,18.90
2022-11-21T07:40:51.740Z,20.02
2022-11-21T07:43:54.550Z,19.15
2022-11-21T07:46:57.131Z,19.90
2022-11-21T07:50:00.261Z,21.23
2022-11-21T07:53:05.550Z,22.97
2022-11-21T07:56:11.302Z,23.38
2022-11-21T07:59:13.873Z,24.05
2022-11-21T08:02:22.885Z,21.27
2022-11-21T08:05:25.711Z,19.95
2022-11-21T08:08:28.353Z,16.63
2022-11-21T08:11:32.526Z,18.50
2022-11-21T08:14:35.533Z,18.73
2022-11-21T08:17:39.145Z,16.65
2022-11-21T08:20:42.883Z,14.87
2022-11-21T08:23:45.790Z,17.50
2022-11-21T08:26:48.495Z,17.55
2022-11-21T08:29:51.423Z,26.55
2022-11-21T08:32:58.526Z,36.47
2022-11-21T08:36:07.673Z,40.30
2022-11-21T08:39:10.267Z,27.80
2022-11-21T08:42:13.385Z,24.45
2022-11-21T08:45:15.882Z,19.23
2022-11-21T08:48:19.149Z,20.85
2022-11-21T08:51:22.196Z,19.65
2022-11-21T08:54:25.053Z,17.63
2022-11-21T08:57:28.026Z,21.12
2022-11-21T09:00:30.851Z,20.88
2022-11-21T09:03:33.525Z,18.40
2022-11-21T09:06:36.797Z,18.65
2022-11-21T09:09:39.325Z,17.87
2022-11-21T09:12:42.267Z,18.23
2022-11-21T09:16:03.382Z,18.52
2022-11-21T09:19:06.586Z,16.52
2022-11-21T09:22:09.074Z,16.40
2022-11-21T09:25:11.899Z,16.80
2022-11-21T09:28:14.813Z,17.40
2022-11-21T09:31:17.745Z,15.35
2022-11-21T09:34:20.461Z,16.33
2022-11-21T09:37:23.309Z,14.55
2022-11-21T09:40:26.373Z,15.50
2022-11-21T09:43:49.647Z,15.98
2022-11-21T09:47:04.510Z,15.38
2022-11-21T09:50:27.185Z,12.57
2022-11-21T09:53:36.294Z,13.13
2022-11-21T09:56:41.458Z,11.73
2022-11-21T09:59:44.855Z,12.10
2022-11-21T10:02:48.360Z,12.63
2022-11-21T10:05:55.516Z,12.75
2022-11-21T10:09:00.991Z,13.25
2022-11-21T10:12:38.041Z,12.00
2022-11-21T10:15:49.963Z,11.15
2022-11-21T10:19:22.676Z,12.20
2022-11-21T10:22:39.426Z,11.70
2022-11-21T10:26:10.022Z,12.02
2022-11-21T10:29:22.231Z,10.80
2022-11-21T10:32:35.374Z,11.10
2022-11-21T10:35:44.642Z,12.88
2022-11-21T10:38:50.197Z,11.00
2022-11-21T10:42:42.249Z,11.77
2022-11-21T10:45:45.189Z,10.73
2022-11-21T10:49:03.347Z,10.40
2022-11-21T10:52:19.201Z,11.32
2022-11-21T10:55:21.695Z,12.45
2022-11-21T10:58:51.282Z,13.15
2022-11-21T11:02:23.331Z,12.87
2022-11-21T11:05:28.043Z,12.48
2022-11-21T11:08:50.371Z,13.13
2022-11-21T11:11:53.302Z,12.90
2022-11-21T11:14:56.819Z,13.45
2022-11-21T11:18:08.871Z,13.77
2022-11-21T11:21:22.298Z,16.10
2022-11-21T11:24:27.515Z,12.65
2022-11-21T11:27:30.114Z,13.15
2022-11-21T11:30:37.340Z,13.02
2022-11-21T11:33:41.636Z,13.23
2022-11-21T11:36:55.607Z,15.25
2022-11-21T11:39:58.060Z,12.80
2022-11-21T11:43:32.830Z,12.18
2022-11-21T11:47:21.501Z,11.85
2022-11-21T11:50:29.071Z,12.53
2022-11-21T11:53:42.394Z,12.32
2022-11-21T11:56:47.220Z,11.77
2022-11-21T12:00:18.125Z,10.90
2022-11-21T12:03:36.900Z,11.35
2022-11-21T12:07:36.159Z,10.33
2022-11-21T12:10:26.201Z,10.88
2022-11-21T12:13:30.286Z,9.77
2022-11-21T12:16:34.460Z,9.43
2022-11-21T12:19:38.373Z,9.80
2022-11-21T12:22:41.639Z,9.53
2022-11-21T12:25:57.927Z,9.68
2022-11-21T12:29:17.019Z,10.40
2022-11-21T12:32:31.945Z,9.18
2022-11-21T12:36:16.382Z,10.70
2022-11-21T12:39:33.205Z,9.97
2022-11-21T12:42:50.042Z,10.93
2022-11-21T12:46:08.836Z,11.00
2022-11-21T12:49:42.540Z,10.70
2022-11-21T12:53:07.447Z,10.48
2022-11-21T12:56:24.126Z,10.00
2022-11-21T12:59:27.437Z,9.82
2022-11-21T13:02:48.883Z,10.18
2022-11-21T13:05:53.298Z,11.18
2022-11-21T13:08:57.642Z,10.13
2022-11-21T13:12:07.874Z,10.13
2022-11-21T13:15:38.469Z,10.05
2022-11-21T13:18:48.264Z,9.48
2022-11-21T13:21:57.235Z,11.75
2022-11-21T13:25:01.193Z,11.90
2022-11-21T13:28:13.235Z,11.47
2022-11-21T13:31:33.058Z,9.13
2022-11-21T13:34:37.549Z,9.82
2022-11-21T13:37:52.487Z,10.63
2022-11-21T13:41:14.195Z,9.27
2022-11-21T13:44:32.234Z,10.70
2022-11-21T13:48:03.480Z,9.32
2022-11-21T13:51:20.499Z,9.13
2022-11-21T13:54:39.849Z,10.23
2022-11-21T13:57:51.499Z,9.38
2022-11-21T14:01:31.789Z,9.63
2022-11-21T14:04:53.203Z,11.82
2022-11-21T14:08:21.383Z,12.07
2022-11-21T14:11:37.031Z,12.57
2022-11-21T14:14:54.303Z,13.07
2022-11-21T14:17:58.618Z,14.23
2022-11-21T14:21:02.085Z,13.65
2022-11-21T14:24:14.547Z,14.23
2022-11-21T14:27:27.948Z,15.60
2022-11-21T14:30:32.813Z,14.98
2022-11-21T14:33:41.195Z,15.97
2022-11-21T14:36:44.230Z,17.52
2022-11-21T14:39:52.791Z,18.02
2022-11-21T14:43:01.235Z,17.37
2022-11-21T14:46:03.981Z,18.02
2022-11-21T14:49:17.754Z,17.80
2022-11-21T14:52:26.918Z,19.98
2022-11-21T14:55:32.121Z,18.70
2022-11-21T14:58:34.951Z,18.85
2022-11-21T15:01:40.961Z,17.62
2022-11-21T15:04:48.186Z,18.47
2022-11-21T15:07:57.470Z,17.65
2022-11-21T15:11:15.133Z,17.87
2022-11-21T15:14:21.001Z,17.05
2022-11-21T15:17:25.137Z,16.35
2022-11-21T15:20:28.831Z,16.00
2022-11-21T15:23:36.726Z,17.00
2022-11-21T15:26:41.106Z,16.45
2022-11-21T15:29:43.685Z,16.48
2022-11-21T15:33:02.395Z,15.30
2022-11-21T15:36:13.743Z,15.30
2022-11-21T15:39:21.507Z,14.57
2022-11-21T15:42:33.169Z,15.05
2022-11-21T15:45:36.571Z,14.27
2022-11-21T15:48:39.104Z,15.07
2022-11-21T15:55:17.670Z,17.00
2022-11-21T15:58:20.537Z,20.52
2022-11-21T16:01:29.857Z,21.37
2022-11-21T16:04:32.827Z,20.92
2022-11-21T16:07:35.468Z,20.63
2022-11-21T16:10:38.397Z,20.50
2022-11-21T16:13:40.894Z,16.20
2022-11-21T16:16:44.435Z,14.57
2022-11-21T16:19:47.136Z,16.87
2022-11-21T16:22:50.169Z,14.53
2022-11-21T16:25:54.038Z,13.65
2022-11-21T16:28:58.475Z,12.48
2022-11-21T16:32:01.081Z,13.10
2022-11-21T16:35:04.604Z,12.23
2022-11-21T16:38:11.241Z,15.07
2022-11-21T16:41:14.319Z,16.27
2022-11-21T16:44:17.162Z,15.05
2022-11-21T16:47:20.022Z,15.25
2022-11-21T16:50:22.645Z,15.48
2022-11-21T16:53:25.521Z,15.50
2022-11-21T16:56:28.302Z,16.75
2022-11-21T16:59:32.233Z,17.58
2022-11-21T17:02:37.084Z,17.98
2022-11-21T17:05:39.888Z,16.75
2022-11-21T17:08:42.748Z,19.00
2022-11-21T17:11:45.660Z,17.73
2022-11-21T17:14:48.145Z,17.42
2022-11-21T17:17:51.583Z,16.52
2022-11-21T17:20:54.794Z,16.10
2022-11-21T17:23:58.393Z,16.97
2022-11-21T17:27:02.606Z,16.92
2022-11-21T17:30:06.377Z,16.10
2022-11-21T17:33:13.014Z,14.52
2022-11-21T17:36:20.823Z,13.77
2022-11-21T17:39:29.370Z,14.20
2022-11-21T17:42:33.020Z,15.07
2022-11-21T17:45:36.284Z,14.02
2022-11-21T17:48:39.651Z,18.85
2022-11-21T17:51:46.106Z,17.30
2022-11-21T17:54:49.247Z,16.20
2022-11-21T17:57:52.068Z,17.45
2022-11-21T18:00:56.362Z,16.62
2022-11-21T18:04:01.236Z,15.55
2022-11-21T18:07:04.113Z,13.93
2022-11-21T18:10:40.631Z,14.20
2022-11-21T18:13:32.903Z,12.82
2022-11-21T18:16:36.146Z,12.85
2022-11-21T18:19:39.181Z,11.90
2022-11-21T18:22:42.873Z,13.60
2022-11-21T18:25:46.932Z,13.73
2022-11-21T18:29:07.163Z,15.52
2022-11-21T18:32:14.780Z,14.45
2022-11-21T18:35:17.791Z,14.10
2022-11-21T18:38:46.981Z,14.30
2022-11-21T18:41:44.067Z,14.97
2022-11-21T18:44:47.121Z,15.55
2022-11-21T18:47:53.143Z,14.85
2022-11-21T18:51:03.736Z,14.93
2022-11-21T18:54:08.605Z,15.70
2022-11-21T18:57:11.662Z,13.17
2022-11-21T19:00:15.129Z,13.60
2022-11-21T19:03:19.866Z,13.05
2022-11-21T19:06:25.092Z,13.18
2022-11-21T19:09:32.440Z,11.55
2022-11-21T19:12:39.417Z,11.57
2022-11-21T19:15:45.436Z,12.80
2022-11-21T19:19:11.670Z,14.07
2022-11-21T19:22:14.611Z,15.20
2022-11-21T19:25:19.450Z,13.48
2022-11-21T19:28:22.412Z,14.70
2022-11-21T19:31:25.859Z,15.05
2022-11-21T19:34:28.740Z,15.95
2022-11-21T19:37:31.956Z,14.57
2022-11-21T19:40:56.010Z,15.13
2022-11-21T19:43:59.995Z,13.73
2022-11-21T19:47:02.796Z,16.33
2022-11-21T19:50:06.279Z,16.55
2022-11-21T19:53:09.457Z,16.30
2022-11-21T19:56:14.006Z,15.52
2022-11-21T19:59:16.795Z,15.07
2022-11-21T20:02:24.567Z,14.35
2022-11-21T20:05:35.433Z,14.18
2022-11-21T20:08:38.251Z,15.18
2022-11-21T20:11:42.557Z,15.45
2022-11-21T20:14:45.026Z,15.77
2022-11-21T20:17:51.363Z,16.17
2022-11-21T20:20:54.018Z,16.20
2022-11-21T20:23:57.711Z,15.75
2022-11-21T20:27:00.559Z,16.00
2022-11-21T20:30:04.396Z,15.77
2022-11-21T20:33:11.133Z,15.52
2022-11-21T20:36:19.806Z,17.60
2022-11-21T20:39:22.314Z,16.20
2022-11-21T20:42:25.552Z,15.32
2022-11-21T20:48:51.568Z,15.88
2022-11-21T20:53:43.898Z,15.13
2022-11-21T20:55:17.687Z,14.57
2022-11-21T20:58:20.502Z,15.75
2022-11-21T21:01:24.273Z,15.77
2022-11-21T21:04:27.265Z,15.52
2022-11-21T21:07:30.255Z,16.08
2022-11-21T21:10:51.369Z,15.77
2022-11-21T21:13:56.018Z,15.48
2022-11-21T21:16:58.653Z,13.43
2022-11-21T21:20:01.654Z,12.73
2022-11-21T21:23:04.324Z,16.12
2022-11-21T21:26:18.371Z,14.65
2022-11-21T21:29:24.092Z,17.48
2022-11-21T21:32:27.007Z,14.70
2022-11-21T21:35:29.802Z,11.32
2022-11-21T21:38:33.913Z,12.37
2022-11-21T21:41:39.962Z,13.07
2022-11-21T21:44:50.415Z,12.82
2022-11-21T21:47:57.317Z,14.57
2022-11-21T21:51:07.197Z,13.55
2022-11-21T21:54:20.046Z,12.77
2022-11-21T21:57:23.029Z,12.60
2022-11-21T22:00:25.731Z,12.00
2022-11-21T22:03:28.578Z,12.53
2022-11-21T22:06:33.863Z,12.73
2022-11-21T22:09:36.764Z,12.32
2022-11-21T22:12:43.853Z,9.63
2022-11-21T22:15:47.146Z,10.48
2022-11-21T22:18:50.148Z,12.27
2022-11-21T22:21:53.026Z,12.07
2022-11-21T22:24:55.698Z,10.57
2022-11-21T22:27:58.519Z,11.40
2022-11-21T22:31:01.219Z,12.23
2022-11-21T22:34:04.207Z,10.97
2022-11-21T22:37:06.825Z,12.40
2022-11-21T22:40:10.599Z,12.05
2022-11-21T22:43:13.150Z,11.90
2022-11-21T22:46:16.210Z,13.00
2022-11-21T22:49:18.839Z,12.07
2022-11-21T22:52:21.667Z,14.02
2022-11-21T22:55:24.274Z,10.77
2022-11-21T22:58:32.969Z,12.05
2022-11-21T23:01:35.589Z,10.60
2022-11-21T23:04:38.401Z,11.10
2022-11-21T23:07:40.998Z,10.32
2022-11-21T23:10:44.048Z,11.38
2022-11-21T23:13:47.498Z,11.32
2022-11-21T23:16:50.455Z,11.45
2022-11-21T23:19:53.250Z,7.87
2022-11-21T23:22:57.459Z,8.50
2022-11-21T23:26:00.113Z,7.47
2022-11-21T23:29:08.298Z,7.82
2022-11-21T23:32:11.277Z,8.45
2022-11-21T23:35:14.259Z,9.07
2022-11-21T23:38:17.723Z,10.48
2022-11-21T23:41:20.654Z,8.75
2022-11-21T23:44:23.239Z,8.25
2022-11-21T23:47:26.080Z,8.80
2022-11-21T23:50:29.012Z,8.70
2022-11-21T23:53:31.862Z,9.00
2022-11-21T23:56:34.467Z,8.88
2022-11-21T23:59:37.301Z,9.98
